createdAt,value
2023-03-01T00:00:37.733Z,-1.98
2023-03-01T00:01:40.706Z,-1.96
2023-03-01T00:02:42.963Z,-1.84
2023-03-01T00:03:45.964Z,-1.70
2023-03-01T00:04:49.019Z,-1.65
2023-03-01T00:05:51.330Z,-1.55
2023-03-01T00:06:54.180Z,-1.27
2023-03-01T00:07:56.516Z,-1.79
2023-03-01T00:08:58.843Z,-1.79
2023-03-01T00:10:01.161Z,-1.77
2023-03-01T00:11:15.888Z,-1.46
2023-03-01T00:12:18.257Z,-1.30
2023-03-01T00:13:20.521Z,-1.19
2023-03-01T00:14:23.848Z,-1.55
2023-03-01T00:15:26.153Z,-1.47
2023-03-01T00:16:35.202Z,-1.64
2023-03-01T00:17:37.948Z,-1.65
2023-03-01T00:18:40.520Z,-1.54
2023-03-01T00:19:42.695Z,-1.69
2023-03-01T00:20:50.521Z,-1.32
2023-03-01T00:21:52.891Z,-1.71
2023-03-01T00:22:55.156Z,-1.79
2023-03-01T00:23:57.822Z,-1.38
2023-03-01T00:25:00.118Z,-1.55
2023-03-01T00:26:02.476Z,-1.70
2023-03-01T00:27:04.637Z,-1.90
2023-03-01T00:28:06.772Z,-2.10
2023-03-01T00:29:09.619Z,-2.41
2023-03-01T00:30:13.272Z,-2.28
2023-03-01T00:31:20.297Z,-2.20
2023-03-01T00:32:22.820Z,-1.47
2023-03-01T00:33:25.260Z,-1.35
2023-03-01T00:34:27.941Z,-1.65
2023-03-01T00:35:32.352Z,-1.70
2023-03-01T00:36:37.397Z,-1.42
2023-03-01T00:37:41.117Z,-1.32
2023-03-01T00:38:45.612Z,-1.18
2023-03-01T00:39:49.082Z,-1.00
2023-03-01T00:40:52.200Z,-1.00
2023-03-01T00:41:54.733Z,-1.74
2023-03-01T00:42:56.994Z,-1.99
2023-03-01T00:43:59.147Z,-1.83
2023-03-01T00:45:02.161Z,-1.60
2023-03-01T00:46:06.991Z,-1.55
2023-03-01T00:47:09.801Z,-1.66
2023-03-01T00:48:12.111Z,-1.50
2023-03-01T00:49:14.937Z,-1.17
2023-03-01T00:50:18.184Z,-1.36
2023-03-01T00:52:34.199Z,-1.21
2023-03-01T00:53:37.488Z,-2.13
2023-03-01T00:54:39.584Z,-1.98
2023-03-01T00:55:41.795Z,-2.03
2023-03-01T00:56:44.023Z,-1.79
2023-03-01T00:57:46.298Z,-1.45
2023-03-01T00:58:49.213Z,-1.47
2023-03-01T00:59:53.198Z,-1.28
2023-03-01T01:00:55.789Z,-1.11
2023-03-01T01:01:59.577Z,-0.89
2023-03-01T01:03:01.927Z,-0.97
2023-03-01T01:04:07.476Z,-1.20
2023-03-01T01:05:10.496Z,-0.89
2023-03-01T01:06:17.915Z,-0.80
2023-03-01T01:07:23.347Z,-0.79
2023-03-01T01:08:25.738Z,-0.53
2023-03-01T01:09:28.195Z,-0.60
2023-03-01T01:10:30.730Z,-0.66
2023-03-01T01:11:36.718Z,-1.40
2023-03-01T01:12:39.146Z,-1.39
2023-03-01T01:13:42.313Z,-1.18
2023-03-01T01:14:45.249Z,-1.42
2023-03-01T01:15:47.466Z,-1.54
2023-03-01T01:16:50.435Z,-1.81
2023-03-01T01:17:53.318Z,-1.91
2023-03-01T01:18:57.242Z,-1.68
2023-03-01T01:19:59.808Z,-1.88
2023-03-01T01:21:07.814Z,-1.87
2023-03-01T01:22:10.815Z,-1.80
2023-03-01T01:23:13.290Z,-1.93
2023-03-01T01:24:16.627Z,-2.09
2023-03-01T01:25:19.580Z,-2.45
2023-03-01T01:26:25.220Z,-1.86
2023-03-01T01:27:27.406Z,-1.88
2023-03-01T01:28:29.569Z,-2.06
2023-03-01T01:29:32.712Z,-2.62
2023-03-01T01:30:35.177Z,-2.82
2023-03-01T01:31:39.302Z,-2.71
2023-03-01T01:32:41.721Z,-2.74
2023-03-01T01:33:44.353Z,-2.94
2023-03-01T01:34:47.479Z,-2.15
2023-03-01T01:35:50.299Z,-2.05
2023-03-01T01:36:54.540Z,-1.93
2023-03-01T01:37:56.865Z,-1.88
2023-03-01T01:38:59.957Z,-1.98
2023-03-01T01:40:04.659Z,-2.41
2023-03-01T01:41:07.976Z,-2.58
2023-03-01T01:42:13.870Z,-2.80
2023-03-01T01:43:19.926Z,-2.92
2023-03-01T01:44:27.429Z,-2.99
2023-03-01T01:45:35.576Z,-3.03
2023-03-01T01:46:47.528Z,-2.93
2023-03-01T01:47:50.978Z,-2.84
2023-03-01T01:48:59.994Z,-2.84
2023-03-01T01:50:02.983Z,-2.85
2023-03-01T01:51:05.647Z,-2.86
2023-03-01T01:52:24.628Z,-2.95
2023-03-01T01:53:29.469Z,-2.93
2023-03-01T01:54:41.371Z,-2.89
2023-03-01T01:55:47.364Z,-2.90
2023-03-01T01:56:59.518Z,-3.00
2023-03-01T01:58:05.377Z,-3.00
2023-03-01T01:59:09.626Z,-2.98
2023-03-01T02:00:22.456Z,-2.94
2023-03-01T02:01:27.374Z,-3.19
2023-03-01T02:02:29.838Z,-3.13
2023-03-01T02:03:36.635Z,-3.13
2023-03-01T02:04:40.003Z,-3.03
2023-03-01T02:05:55.530Z,-2.97
2023-03-01T02:07:02.978Z,-2.99
2023-03-01T02:08:06.689Z,-2.99
2023-03-01T02:09:12.727Z,-2.93
2023-03-01T02:10:16.086Z,-2.94
2023-03-01T02:11:20.459Z,-2.95
2023-03-01T02:12:26.776Z,-2.94
2023-03-01T02:13:29.182Z,-3.03
2023-03-01T02:14:31.658Z,-2.93
2023-03-01T02:15:36.526Z,-2.90
2023-03-01T02:16:39.372Z,-2.88
2023-03-01T02:17:42.194Z,-2.89
2023-03-01T02:18:45.833Z,-3.00
2023-03-01T02:19:52.266Z,-2.99
2023-03-01T02:21:16.821Z,-2.94
2023-03-01T02:22:29.252Z,-3.05
2023-03-01T02:23:33.310Z,-2.98
2023-03-01T02:24:45.602Z,-2.93
2023-03-01T02:25:54.446Z,-3.02
2023-03-01T02:26:59.347Z,-2.92
2023-03-01T02:28:08.792Z,-2.95
2023-03-01T02:29:11.181Z,-3.01
2023-03-01T02:30:13.868Z,-2.95
2023-03-01T02:31:38.816Z,-2.96
2023-03-01T02:32:43.017Z,-2.94
2023-03-01T02:33:48.997Z,-2.91
2023-03-01T02:34:56.481Z,-2.95
2023-03-01T02:36:01.583Z,-2.92
2023-03-01T02:37:07.319Z,-3.14
2023-03-01T02:38:11.673Z,-3.00
2023-03-01T02:39:17.943Z,-3.02
2023-03-01T02:40:22.013Z,-2.99
2023-03-01T02:41:27.314Z,-3.02
2023-03-01T02:42:33.714Z,-3.09
2023-03-01T02:43:36.787Z,-3.19
2023-03-01T02:44:40.136Z,-3.04
2023-03-01T02:45:53.142Z,-3.03
2023-03-01T02:46:58.610Z,-3.00
2023-03-01T02:48:01.593Z,-2.95
2023-03-01T02:49:07.687Z,-2.94
2023-03-01T02:50:14.006Z,-2.91
2023-03-01T02:51:38.054Z,-3.01
2023-03-01T02:52:49.889Z,-3.07
2023-03-01T02:54:12.929Z,-2.95
2023-03-01T02:55:17.923Z,-3.02
2023-03-01T02:56:20.413Z,-2.93
2023-03-01T02:57:25.396Z,-2.92
2023-03-01T02:58:27.869Z,-3.03
2023-03-01T02:59:35.355Z,-3.00
2023-03-01T03:00:43.253Z,-3.05
2023-03-01T03:01:47.382Z,-2.96
2023-03-01T03:02:52.428Z,-2.92
2023-03-01T03:03:55.898Z,-2.85
2023-03-01T03:04:58.251Z,-2.92
2023-03-01T03:06:00.670Z,-2.94
2023-03-01T03:07:04.916Z,-3.05
2023-03-01T03:08:08.069Z,-2.96
2023-03-01T03:09:15.855Z,-2.95
2023-03-01T03:10:25.304Z,-2.96
2023-03-01T03:11:28.835Z,-2.97
2023-03-01T03:12:31.544Z,-2.95
2023-03-01T03:13:33.908Z,-2.90
2023-03-01T03:14:36.945Z,-3.00
2023-03-01T03:15:40.622Z,-3.02
2023-03-01T03:16:49.372Z,-3.02
2023-03-01T03:17:53.527Z,-3.01
2023-03-01T03:18:58.077Z,-3.05
2023-03-01T03:20:00.390Z,-3.08
2023-03-01T03:21:02.617Z,-3.13
2023-03-01T03:22:05.782Z,-3.16
2023-03-01T03:23:08.888Z,-3.17
2023-03-01T03:24:11.217Z,-3.09
2023-03-01T03:25:13.674Z,-3.14
2023-03-01T03:26:16.720Z,-3.11
2023-03-01T03:27:19.097Z,-3.03
2023-03-01T03:28:21.381Z,-2.96
2023-03-01T03:29:23.440Z,-2.92
2023-03-01T03:30:29.656Z,-3.04
2023-03-01T03:31:32.096Z,-3.03
2023-03-01T03:32:35.115Z,-3.04
2023-03-01T03:33:37.922Z,-3.09
2023-03-01T03:34:40.333Z,-3.11
2023-03-01T03:35:45.744Z,-3.09
2023-03-01T03:36:48.325Z,-3.07
2023-03-01T03:38:06.357Z,-3.13
2023-03-01T03:39:08.811Z,-3.11
2023-03-01T03:40:14.153Z,-3.21
2023-03-01T03:41:17.523Z,-3.24
2023-03-01T03:42:19.853Z,-3.24
2023-03-01T03:43:24.053Z,-3.23
2023-03-01T03:44:26.494Z,-3.23
2023-03-01T03:45:29.277Z,-3.20
2023-03-01T03:46:32.406Z,-3.31
2023-03-01T03:47:35.031Z,-3.36
2023-03-01T03:48:40.918Z,-3.32
2023-03-01T03:49:43.250Z,-3.30
2023-03-01T03:50:51.356Z,-3.27
2023-03-01T03:51:53.755Z,-3.25
2023-03-01T03:52:56.122Z,-3.24
2023-03-01T03:53:58.691Z,-3.31
2023-03-01T03:55:01.614Z,-3.34
2023-03-01T03:56:06.510Z,-3.33
2023-03-01T03:57:08.869Z,-3.38
2023-03-01T03:58:12.313Z,-3.27
2023-03-01T03:59:14.838Z,-3.31
2023-03-01T04:00:19.649Z,-3.32
2023-03-01T04:01:22.516Z,-3.31
2023-03-01T04:02:25.106Z,-3.29
2023-03-01T04:03:29.240Z,-3.31
2023-03-01T04:04:31.604Z,-3.33
2023-03-01T04:05:34.493Z,-3.43
2023-03-01T04:06:37.004Z,-3.44
2023-03-01T04:07:39.366Z,-3.48
2023-03-01T04:08:42.181Z,-3.49
2023-03-01T04:09:44.861Z,-3.45
2023-03-01T04:10:49.260Z,-3.39
2023-03-01T04:11:51.428Z,-3.32
2023-03-01T04:12:53.565Z,-3.40
2023-03-01T04:13:59.226Z,-3.47
2023-03-01T04:15:03.788Z,-3.42
2023-03-01T04:16:06.987Z,-3.39
2023-03-01T04:17:09.308Z,-3.44
2023-03-01T04:18:16.651Z,-3.32
2023-03-01T04:19:18.936Z,-3.31
2023-03-01T04:20:28.769Z,-3.34
2023-03-01T04:21:31.155Z,-3.33
2023-03-01T04:22:35.085Z,-3.37
2023-03-01T04:23:38.704Z,-3.36
2023-03-01T04:24:41.048Z,-3.32
2023-03-01T04:25:55.084Z,-3.39
2023-03-01T04:26:57.751Z,-3.38
2023-03-01T04:28:00.001Z,-3.37
2023-03-01T04:29:02.242Z,-3.22
2023-03-01T04:30:05.561Z,-3.33
2023-03-01T04:31:13.890Z,-3.32
2023-03-01T04:32:17.051Z,-3.30
2023-03-01T04:33:20.551Z,-3.30
2023-03-01T04:34:22.853Z,-3.41
2023-03-01T04:35:25.209Z,-3.42
2023-03-01T04:36:30.051Z,-3.41
2023-03-01T04:37:32.758Z,-3.41
2023-03-01T04:38:38.074Z,-3.42
2023-03-01T04:39:42.034Z,-3.33
2023-03-01T04:40:44.564Z,-3.21
2023-03-01T04:41:46.800Z,-3.25
2023-03-01T04:42:49.097Z,-3.27
2023-03-01T04:43:51.673Z,-3.30
2023-03-01T04:44:55.073Z,-3.35
2023-03-01T04:46:03.490Z,-3.31
2023-03-01T04:47:06.036Z,-3.26
2023-03-01T04:48:08.492Z,-3.14
2023-03-01T04:49:11.883Z,-3.05
2023-03-01T04:50:20.289Z,-3.08
2023-03-01T04:51:23.106Z,-3.19
2023-03-01T04:52:25.459Z,-3.26
2023-03-01T04:53:28.919Z,-3.16
2023-03-01T04:54:32.940Z,-3.24
2023-03-01T04:55:35.880Z,-3.20
2023-03-01T04:56:38.301Z,-3.17
2023-03-01T04:57:40.897Z,-3.07
2023-03-01T04:58:43.395Z,-3.13
2023-03-01T04:59:45.749Z,-3.23
2023-03-01T05:00:48.205Z,-3.19
2023-03-01T05:01:51.677Z,-3.18
2023-03-01T05:02:56.891Z,-3.19
2023-03-01T05:04:01.136Z,-3.22
2023-03-01T05:05:03.660Z,-3.24
2023-03-01T05:06:06.503Z,-3.23
2023-03-01T05:07:09.229Z,-3.21
2023-03-01T05:08:18.008Z,-3.14
2023-03-01T05:09:20.397Z,-3.17
2023-03-01T05:10:24.840Z,-3.13
2023-03-01T05:11:28.985Z,-3.12
2023-03-01T05:12:31.186Z,-3.07
2023-03-01T05:13:34.150Z,-3.12
2023-03-01T05:14:37.206Z,-3.00
2023-03-01T05:15:39.918Z,-3.05
2023-03-01T05:16:43.409Z,-2.89
2023-03-01T05:17:46.900Z,-2.81
2023-03-01T05:18:50.823Z,-2.84
2023-03-01T05:19:55.107Z,-2.95
2023-03-01T05:21:11.362Z,-2.85
2023-03-01T05:22:13.982Z,-2.74
2023-03-01T05:23:16.520Z,-2.61
2023-03-01T05:24:22.967Z,-2.63
2023-03-01T05:25:23.272Z,-2.70
2023-03-01T05:26:28.726Z,-2.84
2023-03-01T05:27:32.182Z,-2.74
2023-03-01T05:28:35.695Z,-2.67
2023-03-01T05:29:39.803Z,-2.85
2023-03-01T05:30:42.317Z,-2.85
2023-03-01T05:31:45.012Z,-2.79
2023-03-01T05:32:50.375Z,-2.82
2023-03-01T05:33:53.386Z,-2.82
2023-03-01T05:34:56.256Z,-2.70
2023-03-01T05:36:00.902Z,-2.81
2023-03-01T05:37:04.028Z,-2.74
2023-03-01T05:38:06.412Z,-2.79
2023-03-01T05:39:08.895Z,-2.84
2023-03-01T05:40:15.599Z,-2.65
2023-03-01T05:41:17.905Z,-2.66
2023-03-01T05:42:20.415Z,-2.62
2023-03-01T05:43:23.699Z,-2.48
2023-03-01T05:44:26.877Z,-2.63
2023-03-01T05:45:29.496Z,-2.74
2023-03-01T05:46:32.163Z,-2.65
2023-03-01T05:47:35.651Z,-2.58
2023-03-01T05:48:39.216Z,-2.49
2023-03-01T05:49:41.448Z,-2.43
2023-03-01T05:50:45.546Z,-2.37
2023-03-01T05:51:50.169Z,-2.26
2023-03-01T05:52:59.194Z,-2.39
2023-03-01T05:54:02.584Z,-2.39
2023-03-01T05:55:06.105Z,-2.37
2023-03-01T05:56:09.433Z,-2.35
2023-03-01T05:57:12.647Z,-2.35
2023-03-01T05:58:18.591Z,-2.26
2023-03-01T05:59:21.467Z,-2.19
2023-03-01T06:00:24.119Z,-2.18
2023-03-01T06:01:26.244Z,-2.12
2023-03-01T06:02:29.621Z,-2.22
2023-03-01T06:03:32.628Z,-2.26
2023-03-01T06:04:35.545Z,-2.32
2023-03-01T06:05:38.121Z,-2.31
2023-03-01T06:06:41.581Z,-2.33
2023-03-01T06:07:44.456Z,-2.44
2023-03-01T06:08:46.805Z,-2.35
2023-03-01T06:09:49.074Z,-2.30
2023-03-01T06:10:51.451Z,-2.33
2023-03-01T06:11:53.783Z,-2.34
2023-03-01T06:12:56.834Z,-2.35
2023-03-01T06:13:59.168Z,-2.33
2023-03-01T06:15:02.582Z,-2.30
2023-03-01T06:16:07.697Z,-2.33
2023-03-01T06:17:10.332Z,-2.27
2023-03-01T06:18:12.606Z,-2.11
2023-03-01T06:19:14.863Z,-2.12
2023-03-01T06:20:20.334Z,-2.07
2023-03-01T06:21:22.958Z,-2.04
2023-03-01T06:22:25.230Z,-2.14
2023-03-01T06:23:28.791Z,-2.08
2023-03-01T06:24:32.377Z,-2.13
2023-03-01T06:25:34.884Z,-2.15
2023-03-01T06:26:37.135Z,-2.12
2023-03-01T06:27:40.897Z,-1.99
2023-03-01T06:28:45.158Z,-1.99
2023-03-01T06:29:47.357Z,-1.89
2023-03-01T06:30:52.049Z,-1.86
2023-03-01T06:31:54.544Z,-1.81
2023-03-01T06:32:59.976Z,-1.84
2023-03-01T06:34:03.713Z,-1.91
2023-03-01T06:35:07.411Z,-1.94
2023-03-01T06:36:10.502Z,-1.94
2023-03-01T06:37:12.765Z,-1.86
2023-03-01T06:38:16.322Z,-1.73
2023-03-01T06:39:19.203Z,-1.62
2023-03-01T06:40:22.330Z,-1.64
2023-03-01T06:41:24.577Z,-1.67
2023-03-01T06:42:26.742Z,-1.83
2023-03-01T06:43:29.428Z,-1.82
2023-03-01T06:44:32.193Z,-1.81
2023-03-01T06:45:34.787Z,-1.80
2023-03-01T06:46:37.282Z,-1.84
2023-03-01T06:47:39.767Z,-1.80
2023-03-01T06:48:42.198Z,-1.79
2023-03-01T06:49:44.461Z,-1.64
2023-03-01T06:50:46.924Z,-1.71
2023-03-01T06:51:49.314Z,-1.71
2023-03-01T06:52:55.036Z,-1.61
2023-03-01T06:53:57.248Z,-1.61
2023-03-01T06:55:00.109Z,-1.50
2023-03-01T06:56:03.237Z,-1.62
2023-03-01T06:57:05.638Z,-1.51
2023-03-01T06:58:07.636Z,-1.56
2023-03-01T06:59:09.826Z,-1.49
2023-03-01T07:00:14.384Z,-1.53
2023-03-01T07:01:17.949Z,-1.53
2023-03-01T07:02:20.429Z,-1.36
2023-03-01T07:03:22.972Z,-1.34
2023-03-01T07:04:25.110Z,-1.31
2023-03-01T07:05:27.934Z,-1.20
2023-03-01T07:06:31.474Z,-1.22
2023-03-01T07:07:35.162Z,-1.30
2023-03-01T07:08:37.400Z,-1.24
2023-03-01T07:09:39.418Z,-1.33
2023-03-01T07:10:42.854Z,-1.21
2023-03-01T07:11:45.104Z,-1.02
2023-03-01T07:12:47.826Z,-0.99
2023-03-01T07:13:49.984Z,-0.97
2023-03-01T07:14:52.223Z,-0.97
2023-03-01T07:15:54.567Z,-1.09
2023-03-01T07:16:57.278Z,-1.02
2023-03-01T07:17:59.540Z,-0.86
2023-03-01T07:19:01.733Z,-0.87
2023-03-01T07:20:05.340Z,-0.88
2023-03-01T07:21:09.242Z,-0.89
2023-03-01T07:22:11.567Z,-0.73
2023-03-01T07:23:13.950Z,-0.71
2023-03-01T07:24:16.578Z,-0.65
2023-03-01T07:25:19.563Z,-0.57
2023-03-01T07:26:21.913Z,-0.68
2023-03-01T07:27:24.712Z,-0.74
2023-03-01T07:28:27.715Z,-0.90
2023-03-01T07:29:29.990Z,-0.88
2023-03-01T07:30:32.963Z,-0.78
2023-03-01T07:31:37.764Z,-0.79
2023-03-01T07:32:40.473Z,-0.75
2023-03-01T07:33:42.729Z,-0.79
2023-03-01T07:34:45.979Z,-0.72
2023-03-01T07:35:48.305Z,-0.83
2023-03-01T07:36:51.216Z,-0.83
2023-03-01T07:37:54.268Z,-0.84
2023-03-01T07:38:57.284Z,-0.84
2023-03-01T07:39:59.894Z,-0.58
2023-03-01T07:41:04.129Z,-0.53
2023-03-01T07:42:07.073Z,-0.49
2023-03-01T07:43:09.885Z,-0.58
2023-03-01T07:44:12.246Z,-0.61
2023-03-01T07:45:14.627Z,-0.47
2023-03-01T07:46:19.475Z,-0.57
2023-03-01T07:47:21.883Z,-0.46
2023-03-01T07:48:24.856Z,-0.43
2023-03-01T07:49:28.077Z,-0.46
2023-03-01T07:50:31.505Z,-0.39
2023-03-01T07:51:33.801Z,-0.33
2023-03-01T07:52:36.096Z,-0.24
2023-03-01T07:53:38.152Z,-0.14
2023-03-01T07:54:44.999Z,-0.09
2023-03-01T07:55:47.203Z,-0.15
2023-03-01T07:56:49.561Z,-0.07
2023-03-01T07:57:52.468Z,-0.04
2023-03-01T07:58:55.974Z,-0.07
2023-03-01T07:59:58.287Z,-0.27
2023-03-01T08:01:05.594Z,-0.27
2023-03-01T08:02:09.231Z,-0.25
2023-03-01T08:04:19.554Z,-0.09
2023-03-01T08:05:27.555Z,-0.13
2023-03-01T08:06:30.875Z,-0.07
2023-03-01T08:07:33.945Z,-0.09
2023-03-01T08:08:36.751Z,-0.25
2023-03-01T08:09:40.207Z,-0.18
2023-03-01T08:10:42.855Z,-0.06
2023-03-01T08:11:45.070Z,0.11
2023-03-01T08:12:47.393Z,0.19
2023-03-01T08:13:51.554Z,0.11
2023-03-01T08:14:55.855Z,0.13
2023-03-01T08:16:03.372Z,0.09
2023-03-01T08:17:05.838Z,0.25
2023-03-01T08:18:08.605Z,0.36
2023-03-01T08:19:12.503Z,0.33
2023-03-01T08:20:19.733Z,0.31
2023-03-01T08:21:21.660Z,0.28
2023-03-01T08:22:24.010Z,0.33
2023-03-01T08:23:26.273Z,0.12
2023-03-01T08:24:29.438Z,0.22
2023-03-01T08:25:32.188Z,-0.06
2023-03-01T08:26:34.943Z,0.10
2023-03-01T08:27:37.587Z,0.10
2023-03-01T08:28:40.772Z,0.20
2023-03-01T08:29:43.063Z,0.41
2023-03-01T08:30:45.292Z,0.53
2023-03-01T08:31:49.175Z,0.51
2023-03-01T08:32:52.578Z,0.52
2023-03-01T08:33:58.630Z,0.52
2023-03-01T08:35:01.225Z,0.54
2023-03-01T08:36:07.788Z,0.68
2023-03-01T08:37:10.328Z,0.82
2023-03-01T08:38:12.485Z,1.05
2023-03-01T08:39:18.708Z,1.22
2023-03-01T08:40:21.596Z,1.03
2023-03-01T08:41:24.402Z,0.66
2023-03-01T08:42:27.682Z,0.52
2023-03-01T08:43:31.484Z,0.63
2023-03-01T08:44:35.464Z,0.82
2023-03-01T08:45:37.924Z,0.91
2023-03-01T08:46:42.246Z,0.98
2023-03-01T08:47:47.387Z,1.05
2023-03-01T08:48:49.649Z,0.92
2023-03-01T08:49:52.780Z,1.35
2023-03-01T08:50:55.828Z,1.00
2023-03-01T08:51:58.752Z,0.96
2023-03-01T08:53:01.809Z,1.03
2023-03-01T08:54:10.315Z,1.07
2023-03-01T08:55:13.300Z,1.15
2023-03-01T08:56:16.875Z,0.92
2023-03-01T08:57:19.353Z,1.03
2023-03-01T08:58:21.742Z,0.99
2023-03-01T08:59:25.749Z,0.77
2023-03-01T09:00:28.347Z,0.95
2023-03-01T09:01:30.600Z,1.06
2023-03-01T09:02:32.917Z,1.08
2023-03-01T09:03:35.819Z,1.40
2023-03-01T09:04:40.059Z,1.46
2023-03-01T09:05:42.726Z,1.04
2023-03-01T09:06:45.276Z,0.97
2023-03-01T09:07:47.472Z,1.27
2023-03-01T09:08:51.385Z,1.11
2023-03-01T09:09:54.147Z,1.14
2023-03-01T09:10:56.613Z,0.92
2023-03-01T09:11:58.863Z,0.97
2023-03-01T09:13:01.577Z,0.90
2023-03-01T09:14:07.023Z,1.81
2023-03-01T09:15:10.434Z,1.77
2023-03-01T09:16:15.045Z,1.74
2023-03-01T09:17:17.546Z,1.74
2023-03-01T09:18:20.115Z,1.82
2023-03-01T09:19:22.371Z,1.94
2023-03-01T09:20:24.785Z,1.95
2023-03-01T09:21:39.595Z,1.56
2023-03-01T09:22:31.126Z,1.16
2023-03-01T09:23:39.284Z,1.17
2023-03-01T09:24:42.843Z,0.97
2023-03-01T09:25:45.716Z,0.91
2023-03-01T09:26:50.633Z,0.85
2023-03-01T09:27:54.016Z,1.07
2023-03-01T09:28:57.322Z,1.01
2023-03-01T09:29:59.934Z,0.98
2023-03-01T09:31:03.493Z,1.24
2023-03-01T09:32:06.429Z,1.24
2023-03-01T09:33:11.006Z,1.32
2023-03-01T09:34:15.973Z,1.26
2023-03-01T09:35:21.067Z,1.61
2023-03-01T09:36:26.304Z,1.75
2023-03-01T09:37:29.069Z,1.89
2023-03-01T09:38:32.787Z,1.84
2023-03-01T09:39:36.451Z,2.15
2023-03-01T09:40:46.460Z,2.14
2023-03-01T09:42:02.948Z,1.85
2023-03-01T09:43:15.072Z,2.03
2023-03-01T09:44:36.407Z,1.82
2023-03-01T09:45:43.055Z,1.89
2023-03-01T09:46:46.734Z,2.00
2023-03-01T09:47:49.715Z,1.85
2023-03-01T09:48:58.623Z,1.43
2023-03-01T09:50:14.117Z,1.34
2023-03-01T09:51:20.300Z,1.36
2023-03-01T09:52:40.951Z,1.18
2023-03-01T09:53:43.949Z,1.14
2023-03-01T09:54:47.691Z,1.18
2023-03-01T09:56:03.242Z,1.53
2023-03-01T09:57:28.733Z,1.56
2023-03-01T09:59:00.962Z,1.58
2023-03-01T10:00:23.779Z,1.54
2023-03-01T10:01:47.599Z,1.59
2023-03-01T10:03:00.285Z,2.15
2023-03-01T10:04:29.784Z,1.85
2023-03-01T10:06:07.878Z,1.61
2023-03-01T10:07:14.200Z,1.82
2023-03-01T10:08:46.744Z,1.97
2023-03-01T10:09:49.900Z,2.08
2023-03-01T10:10:56.900Z,1.88
2023-03-01T10:12:07.180Z,1.73
2023-03-01T10:13:19.243Z,1.68
2023-03-01T10:14:54.591Z,2.14
2023-03-01T10:16:00.708Z,2.15
2023-03-01T10:17:32.132Z,1.98
2023-03-01T10:18:37.224Z,2.07
2023-03-01T10:19:42.588Z,2.44
2023-03-01T10:20:58.017Z,2.16
2023-03-01T10:22:07.585Z,1.66
2023-03-01T10:23:11.246Z,1.26
2023-03-01T10:24:20.339Z,1.29
2023-03-01T10:25:33.533Z,1.99
2023-03-01T10:26:46.230Z,1.48
2023-03-01T10:27:57.560Z,1.64
2023-03-01T10:29:09.798Z,1.74
2023-03-01T10:30:16.587Z,1.97
2023-03-01T10:31:28.530Z,1.47
2023-03-01T10:32:32.018Z,1.57
2023-03-01T10:33:40.562Z,1.85
2023-03-01T10:34:43.149Z,1.72
2023-03-01T10:35:45.746Z,1.69
2023-03-01T10:36:52.577Z,1.35
2023-03-01T10:38:16.181Z,1.35
2023-03-01T10:39:21.444Z,1.54
2023-03-01T10:40:24.169Z,1.18
2023-03-01T10:41:29.065Z,1.19
2023-03-01T10:42:35.394Z,1.19
2023-03-01T10:43:56.369Z,1.19
2023-03-01T10:45:01.973Z,1.24
2023-03-01T10:46:09.008Z,1.72
2023-03-01T10:48:28.884Z,1.93
2023-03-01T10:49:31.825Z,1.80
2023-03-01T10:50:34.610Z,2.01
2023-03-01T10:51:38.693Z,1.81
2023-03-01T10:52:43.437Z,1.77
2023-03-01T10:53:52.195Z,1.48
2023-03-01T10:55:07.346Z,1.51
2023-03-01T10:56:14.291Z,1.63
2023-03-01T10:57:26.641Z,1.54
2023-03-01T10:58:30.242Z,1.37
2023-03-01T10:59:38.507Z,1.38
2023-03-01T11:00:51.793Z,1.51
2023-03-01T11:02:33.341Z,1.34
2023-03-01T11:03:39.285Z,1.22
2023-03-01T11:04:45.294Z,1.23
2023-03-01T11:06:10.423Z,1.21
2023-03-01T11:07:12.643Z,1.31
2023-03-01T11:08:15.215Z,1.48
2023-03-01T11:09:23.273Z,1.46
2023-03-01T11:10:31.777Z,1.38
2023-03-01T11:11:36.756Z,1.46
2023-03-01T11:12:40.668Z,1.61
2023-03-01T11:14:24.931Z,1.33
2023-03-01T11:16:40.072Z,1.22
2023-03-01T11:17:54.610Z,1.14
2023-03-01T11:19:04.718Z,0.98
2023-03-01T11:20:17.057Z,1.02
2023-03-01T11:21:19.489Z,1.01
2023-03-01T11:22:23.288Z,0.97
2023-03-01T11:23:28.044Z,1.03
2023-03-01T11:24:34.161Z,1.10
2023-03-01T11:25:39.543Z,1.14
2023-03-01T11:26:45.973Z,1.16
2023-03-01T11:27:48.477Z,1.16
2023-03-01T11:28:54.527Z,1.21
2023-03-01T11:30:06.470Z,1.30
2023-03-01T11:31:13.560Z,1.27
2023-03-01T11:32:17.431Z,1.42
2023-03-01T11:33:47.984Z,1.58
2023-03-01T11:35:24.591Z,1.68
2023-03-01T11:36:49.176Z,1.77
2023-03-01T11:38:04.358Z,1.75
2023-03-01T11:39:27.236Z,1.71
2023-03-01T11:40:54.934Z,1.57
2023-03-01T11:42:18.619Z,1.65
2023-03-01T11:43:26.510Z,1.57
2023-03-01T11:44:32.466Z,1.46
2023-03-01T11:45:41.215Z,1.56
2023-03-01T11:47:13.125Z,1.55
2023-03-01T11:48:25.443Z,1.68
2023-03-01T11:49:48.717Z,1.55
2023-03-01T11:50:53.075Z,1.61
2023-03-01T11:52:19.777Z,1.53
2023-03-01T11:53:59.480Z,1.54
2023-03-01T11:55:30.293Z,1.52
2023-03-01T11:56:43.354Z,1.61
2023-03-01T11:58:08.195Z,1.54
2023-03-01T11:59:47.658Z,1.42
2023-03-01T12:01:04.471Z,1.40
2023-03-01T12:02:13.286Z,1.57
2023-03-01T12:03:24.941Z,1.63
2023-03-01T12:04:39.815Z,1.65
2023-03-01T12:06:05.003Z,1.61
2023-03-01T12:07:26.368Z,1.51
2023-03-01T12:08:38.820Z,1.50
2023-03-01T12:09:59.882Z,1.48
2023-03-01T12:11:25.842Z,1.42
2023-03-01T12:12:40.630Z,1.57
2023-03-01T12:13:50.391Z,1.70
2023-03-01T12:15:02.482Z,1.81
2023-03-01T12:16:37.619Z,1.90
2023-03-01T12:17:38.225Z,2.14
2023-03-01T12:18:47.130Z,2.30
2023-03-01T12:20:16.665Z,2.53
2023-03-01T12:21:42.592Z,2.73
2023-03-01T12:22:48.644Z,2.11
2023-03-01T12:23:54.852Z,1.83
2023-03-01T12:25:18.562Z,1.70
2023-03-01T12:26:43.040Z,1.65
2023-03-01T12:29:31.651Z,1.64
2023-03-01T12:30:43.955Z,1.50
2023-03-01T12:32:01.854Z,1.64
2023-03-01T12:33:18.877Z,1.47
2023-03-01T12:34:53.963Z,1.44
2023-03-01T12:36:02.677Z,1.43
2023-03-01T12:37:23.110Z,1.43
2023-03-01T12:38:40.511Z,1.46
2023-03-01T12:39:58.890Z,1.55
2023-03-01T12:41:23.814Z,1.59
2023-03-01T12:42:39.181Z,1.68
2023-03-01T12:43:48.810Z,1.67
2023-03-01T12:45:01.573Z,1.49
2023-03-01T13:18:33.729Z,1.58
2023-03-01T13:19:37.692Z,1.70
2023-03-01T13:20:46.761Z,1.81
2023-03-01T13:21:52.025Z,2.00
2023-03-01T13:23:25.070Z,1.91
2023-03-01T13:24:40.553Z,1.81
2023-03-01T13:26:01.495Z,1.89
2023-03-01T13:27:10.288Z,1.94
2023-03-01T13:28:34.466Z,2.08
2023-03-01T13:29:52.552Z,2.23
2023-03-01T13:30:55.409Z,2.03
2023-03-01T13:31:59.355Z,2.19
2023-03-01T13:33:29.849Z,2.13
2023-03-01T13:34:48.224Z,1.96
2023-03-01T13:35:50.654Z,1.88
2023-03-01T13:36:54.003Z,1.90
2023-03-01T13:37:59.990Z,1.85
2023-03-01T13:39:05.255Z,1.87
2023-03-01T13:40:21.187Z,2.00
2023-03-01T13:41:49.090Z,2.06
2023-03-01T13:43:04.636Z,2.09
2023-03-01T13:43:58.483Z,2.23
2023-03-01T13:45:02.004Z,2.44
2023-03-01T13:46:15.291Z,2.32
2023-03-01T13:47:19.477Z,2.38
2023-03-01T13:48:25.490Z,2.52
2023-03-01T13:49:45.352Z,2.52
2023-03-01T13:52:03.625Z,2.57
2023-03-01T13:53:07.894Z,2.33
2023-03-01T13:54:12.875Z,2.15
2023-03-01T13:55:18.897Z,2.14
2023-03-01T13:56:29.438Z,2.12
2023-03-01T13:57:35.085Z,1.93
2023-03-01T13:58:53.115Z,2.07
2023-03-01T13:59:55.686Z,2.13
2023-03-01T14:01:04.048Z,1.88
2023-03-01T14:02:13.087Z,1.83
2023-03-01T14:03:20.248Z,1.78
2023-03-01T14:04:31.999Z,1.69
2023-03-01T14:05:36.517Z,1.64
2023-03-01T14:06:39.087Z,1.68
2023-03-01T14:07:43.387Z,1.74
2023-03-01T14:08:50.747Z,1.86
2023-03-01T14:09:56.264Z,1.81
2023-03-01T14:11:19.277Z,1.79
2023-03-01T14:12:27.968Z,1.67
2023-03-01T14:14:07.415Z,1.62
2023-03-01T14:15:22.943Z,1.65
2023-03-01T14:16:32.762Z,1.70
2023-03-01T14:17:44.802Z,1.64
2023-03-01T14:19:15.918Z,1.55
2023-03-01T14:20:28.339Z,1.40
2023-03-01T14:21:30.891Z,1.53
2023-03-01T14:22:35.338Z,1.48
2023-03-01T14:23:40.335Z,1.46
2023-03-01T14:24:47.239Z,1.50
2023-03-01T14:27:03.204Z,1.80
2023-03-01T14:28:21.686Z,1.77
2023-03-01T14:29:25.971Z,1.91
2023-03-01T14:30:37.810Z,1.75
2023-03-01T14:31:52.506Z,1.73
2023-03-01T14:32:57.340Z,1.77
2023-03-01T14:34:00.475Z,1.78
2023-03-01T14:35:03.020Z,1.72
2023-03-01T14:36:13.954Z,1.71
2023-03-01T14:37:22.593Z,1.75
2023-03-01T14:38:36.269Z,1.71
2023-03-01T14:39:39.236Z,1.77
2023-03-01T14:40:45.248Z,1.77
2023-03-01T14:41:49.525Z,1.81
2023-03-01T14:42:54.460Z,1.81
2023-03-01T14:44:00.412Z,1.74
2023-03-01T14:45:04.449Z,1.78
2023-03-01T14:46:07.422Z,1.78
2023-03-01T14:47:16.832Z,1.77
2023-03-01T14:48:21.004Z,1.77
2023-03-01T14:49:27.510Z,1.71
2023-03-01T14:50:34.105Z,1.69
2023-03-01T14:51:39.537Z,1.72
2023-03-01T14:52:46.499Z,1.65
2023-03-01T14:53:51.511Z,1.62
2023-03-01T14:54:55.865Z,1.69
2023-03-01T14:56:07.592Z,1.78
2023-03-01T14:57:16.365Z,1.89
2023-03-01T14:58:22.150Z,1.98
2023-03-01T14:59:27.114Z,1.79
2023-03-01T15:00:33.560Z,1.83
2023-03-01T15:01:37.881Z,1.75
2023-03-01T15:02:41.764Z,1.67
2023-03-01T15:03:47.474Z,1.70
2023-03-01T15:05:00.972Z,1.63
2023-03-01T15:06:06.564Z,1.55
2023-03-01T15:07:12.954Z,1.48
2023-03-01T15:08:22.651Z,1.41
2023-03-01T15:09:24.945Z,1.43